createdAt,value
2018-07-16T17:35:57.643Z,3.60
2018-07-16T17:38:27.708Z,2.67
2018-07-16T17:40:57.645Z,3.50
2018-07-16T17:43:27.584Z,3.30
2018-07-16T17:45:57.456Z,3.33
2018-07-16T17:48:27.171Z,3.13
2018-07-16T17:50:57.106Z,2.50
2018-07-16T17:53:26.750Z,3.90
2018-07-16T17:55:56.465Z,3.07
2018-07-16T17:58:26.112Z,2.67
2018-07-16T18:00:55.748Z,2.43
2018-07-16T18:03:27.454Z,2.53
2018-07-16T18:05:57.064Z,2.37
2018-07-16T18:08:26.686Z,2.20
2018-07-16T18:10:56.293Z,2.73
2018-07-16T18:13:26.021Z,2.17
2018-07-16T18:15:55.643Z,2.30
2018-07-16T18:18:25.256Z,2.73
2018-07-16T18:20:54.994Z,2.17
2018-07-16T18:23:24.718Z,3.60
2018-07-16T18:25:54.315Z,2.57
2018-07-16T18:28:23.952Z,2.40
2018-07-16T18:30:53.956Z,2.40
2018-07-16T18:33:23.608Z,3.23
2018-07-16T18:35:53.122Z,2.53
2018-07-16T18:38:22.687Z,4.37
2018-07-16T18:40:52.350Z,2.60
2018-07-16T18:43:22.143Z,2.83
2018-07-16T18:45:51.737Z,2.53
2018-07-16T18:48:21.456Z,2.37
2018-07-16T18:50:51.128Z,4.03
2018-07-16T18:53:21.792Z,2.97
2018-07-16T18:55:52.311Z,3.53
2018-07-16T18:58:21.944Z,3.97
2018-07-16T19:00:51.536Z,2.50
2018-07-16T19:03:21.308Z,2.93
2018-07-16T19:05:50.940Z,4.70
2018-07-16T19:08:20.533Z,3.33
2018-07-16T19:10:50.116Z,3.37
2018-07-16T19:13:20.206Z,2.87
2018-07-16T19:15:49.768Z,3.17
2018-07-16T19:18:19.387Z,3.10
2018-07-16T19:20:48.984Z,5.67
2018-07-16T19:23:18.551Z,3.73
2018-07-16T19:25:48.175Z,2.93
2018-07-16T19:28:18.611Z,3.43
2018-07-16T19:30:48.224Z,3.10
2018-07-16T19:33:17.818Z,2.87
2018-07-16T19:35:47.415Z,4.23
2018-07-16T19:38:16.991Z,5.00
2018-07-16T19:40:46.553Z,3.20
2018-07-16T19:43:16.135Z,5.33
2018-07-16T19:45:45.796Z,4.13
2018-07-16T19:48:15.415Z,3.83
2018-07-16T19:50:45.069Z,4.23
2018-07-16T19:53:14.688Z,3.67
2018-07-16T19:55:44.249Z,4.43
2018-07-16T19:58:13.842Z,4.17
2018-07-16T20:00:43.400Z,5.23
2018-07-16T20:03:13.004Z,4.27
2018-07-16T20:05:42.656Z,4.57
2018-07-16T20:08:12.276Z,4.80
2018-07-16T20:10:42.057Z,5.67
2018-07-16T20:13:11.720Z,5.93
2018-07-16T20:15:41.551Z,4.77
2018-07-16T20:18:11.641Z,6.13
2018-07-16T20:20:52.719Z,8.00
2018-07-16T20:23:24.456Z,6.20
2018-07-16T20:25:55.666Z,6.43
2018-07-16T20:28:25.595Z,5.00
2018-07-16T20:30:56.181Z,4.58
2018-07-16T20:33:25.757Z,5.13
2018-07-16T20:35:55.342Z,4.33
2018-07-16T20:38:25.109Z,4.23
2018-07-16T20:40:54.779Z,5.40
2018-07-16T20:43:24.401Z,4.93
2018-07-16T20:45:54.008Z,5.17
2018-07-16T20:48:23.588Z,5.53
2018-07-16T20:50:53.257Z,5.00
2018-07-16T20:53:22.915Z,4.97
2018-07-16T20:55:52.497Z,5.07
2018-07-16T20:58:22.107Z,4.90
2018-07-16T21:00:51.755Z,5.10
2018-07-16T21:03:21.356Z,6.27
2018-07-16T21:05:50.982Z,6.97
2018-07-16T21:08:20.557Z,6.37
2018-07-16T21:10:50.412Z,6.07
2018-07-16T21:13:19.981Z,6.77
2018-07-16T21:15:49.536Z,10.13
2018-07-16T21:18:19.104Z,7.50
2018-07-16T21:20:48.712Z,8.43
2018-07-16T21:23:18.371Z,7.63
2018-07-16T21:25:48.302Z,8.27
2018-07-16T21:28:17.929Z,8.17
2018-07-16T21:30:47.455Z,7.37
2018-07-16T21:33:17.012Z,8.50
2018-07-16T21:35:46.641Z,8.30
2018-07-16T21:38:16.223Z,7.10
2018-07-16T21:40:46.054Z,8.23
2018-07-16T21:43:15.505Z,6.47
2018-07-16T21:45:45.182Z,4.93
2018-07-16T21:48:14.830Z,5.60
2018-07-16T21:50:44.407Z,5.67
2018-07-16T21:53:13.963Z,5.73
2018-07-16T21:55:43.540Z,5.10
2018-07-16T21:58:13.128Z,4.87
2018-07-16T22:00:42.727Z,5.80
2018-07-16T22:03:12.439Z,5.10
2018-07-16T22:05:42.389Z,5.23
2018-07-16T22:08:11.977Z,5.33
2018-07-16T22:10:41.601Z,7.63
2018-07-16T22:13:11.196Z,6.40
2018-07-16T22:15:40.786Z,6.30
2018-07-16T22:18:10.375Z,6.40
2018-07-16T22:20:40.129Z,5.60
2018-07-16T22:23:09.700Z,5.47
2018-07-16T22:25:39.276Z,5.70
2018-07-16T22:28:08.833Z,5.33
2018-07-16T22:30:38.559Z,6.53
2018-07-16T22:33:08.111Z,5.97
2018-07-16T22:35:37.663Z,6.37
2018-07-16T22:38:07.204Z,9.07
2018-07-16T22:40:36.827Z,9.77
2018-07-16T22:43:06.383Z,9.10
2018-07-16T22:45:36.072Z,14.63
2018-07-16T22:48:05.818Z,10.87
2018-07-16T22:50:35.394Z,8.83
2018-07-16T22:53:04.966Z,10.87
2018-07-16T22:55:34.546Z,7.27
2018-07-16T22:58:04.132Z,7.70
2018-07-16T23:00:34.152Z,8.43
2018-07-16T23:03:03.766Z,7.03
2018-07-16T23:05:33.399Z,5.27
2018-07-16T23:08:02.944Z,6.90
2018-07-16T23:10:32.522Z,8.27
2018-07-16T23:13:02.071Z,5.80
2018-07-16T23:15:31.624Z,5.23
2018-07-16T23:18:01.201Z,4.73
2018-07-16T23:20:30.764Z,5.40
2018-07-16T23:23:00.324Z,5.17
2018-07-16T23:25:29.917Z,5.87
2018-07-16T23:27:59.489Z,6.23
2018-07-16T23:30:29.114Z,6.03
2018-07-16T23:32:58.663Z,5.10
2018-07-16T23:35:28.280Z,5.20
2018-07-16T23:37:58.836Z,5.47
2018-07-16T23:40:28.409Z,5.90
2018-07-16T23:42:57.967Z,5.73
2018-07-16T23:45:27.539Z,6.83
2018-07-16T23:47:57.108Z,5.90
2018-07-16T23:50:26.767Z,7.03
2018-07-16T23:52:56.272Z,6.80
2018-07-16T23:55:25.832Z,5.07
2018-07-16T23:57:55.401Z,6.10
